Time;durP1;ratioP1;P1;durP2;ratioP2;P2;SDS_P1;SDS_P2;PMS_P1;PMS_P2;Temp;Humidity;BMP_temperature;BMP_pressure;BME280_temperature;BME280_humidity;BME280_pressure;Samples;Min_cycle;Max_cycle;Signal;HPM_P1;HPM_P2
2021/01/05 00:01:50;;;;;;;28.85;15.20;;;;;;;5.27;59.21;101296.34;1762233;81;21118;-77
2021/01/05 00:04:19;;;;;;;26.73;14.53;;;;;;;5.22;59.26;101289.62;1762003;81;21352;-78
2021/01/05 00:06:47;;;;;;;33.75;17.17;;;;;;;5.20;59.32;101279.59;1761977;81;21101;-78
2021/01/05 00:09:15;;;;;;;38.35;19.23;;;;;;;5.19;59.40;101280.55;1762003;81;21164;-77
2021/01/05 00:12:09;;;;;;;24.67;13.53;;;;;;;5.23;59.39;101294.00;1762086;81;21089;-79
2021/01/05 00:14:41;;;;;;;36.23;18.30;;;;;;;5.21;59.39;101289.25;1762178;80;21185;-80
2021/01/05 00:17:09;;;;;;;27.45;13.65;;;;;;;5.25;59.45;101288.09;1762024;81;21420;-80
2021/01/05 00:19:37;;;;;;;36.10;17.15;;;;;;;5.28;59.36;101291.40;1762394;81;21534;-80
2021/01/05 00:22:05;;;;;;;38.20;17.00;;;;;;;5.25;59.26;101291.59;1761897;81;21521;-79
2021/01/05 00:24:34;;;;;;;27.20;14.33;;;;;;;5.24;59.27;101297.02;1762289;81;20994;-77
2021/01/05 00:27:02;;;;;;;27.17;15.72;;;;;;;5.19;59.21;101288.52;1761990;81;21221;-79
2021/01/05 00:29:30;;;;;;;22.98;12.33;;;;;;;5.13;59.27;101283.59;1762149;81;22241;-78
2021/01/05 00:32:12;;;;;;;21.00;12.07;;;;;;;5.11;59.28;101278.88;1761900;81;21629;-81
2021/01/05 00:34:40;;;;;;;28.45;14.83;;;;;;;5.11;59.39;101272.24;1751744;80;21148;-80
2021/01/05 00:37:10;;;;;;;23.47;13.43;;;;;;;5.11;59.51;101265.13;1755105;79;21166;-81
2021/01/05 00:39:37;;;;;;;25.65;14.00;;;;;;;5.13;59.58;101266.34;1743364;81;21218;-80
2021/01/05 00:42:05;;;;;;;27.13;15.90;;;;;;;5.18;59.60;101261.56;1744319;81;21791;-78
2021/01/05 00:44:33;;;;;;;21.52;12.20;;;;;;;5.24;59.51;101267.33;1750774;81;21134;-79
2021/01/05 00:47:03;;;;;;;25.57;13.62;;;;;;;5.27;59.54;101272.92;1744377;81;21268;-79
2021/01/05 00:49:31;;;;;;;23.83;13.20;;;;;;;5.27;59.54;101267.61;1747774;81;21723;-80
2021/01/05 00:51:59;;;;;;;26.85;15.90;;;;;;;5.28;59.60;101263.99;1747803;81;21187;-79
2021/01/05 00:54:28;;;;;;;32.48;17.87;;;;;;;5.28;59.67;101262.66;1742054;81;22266;-79
2021/01/05 00:57:00;;;;;;;29.30;15.10;;;;;;;5.33;59.69;101261.39;1748017;81;21162;-79
2021/01/05 00:59:32;;;;;;;22.58;13.25;;;;;;;5.40;59.65;101252.50;1747145;81;21199;-79
2021/01/05 01:02:00;;;;;;;28.52;14.78;;;;;;;5.51;59.54;101262.41;1748411;81;21182;-79
2021/01/05 01:04:29;;;;;;;29.65;15.95;;;;;;;5.52;59.28;101259.64;1718031;79;21477;-80
2021/01/05 01:06:57;;;;;;;28.95;15.68;;;;;;;5.44;59.39;101260.64;1742486;81;21372;-81
2021/01/05 01:09:26;;;;;;;24.20;14.13;;;;;;;5.38;59.55;101268.20;1743295;81;21221;-80
2021/01/05 01:12:13;;;;;;;21.80;12.13;;;;;;;5.32;59.46;101257.03;1738853;81;21182;-79
2021/01/05 01:14:42;;;;;;;24.55;14.45;;;;;;;5.28;59.50;101262.19;1748312;81;21139;-81
2021/01/05 01:17:12;;;;;;;19.65;11.25;;;;;;;5.22;59.61;101252.44;1751045;81;21230;-80
2021/01/05 01:19:43;;;;;;;22.35;13.50;;;;;;;5.28;59.71;101248.90;1780335;80;21916;-79
2021/01/05 01:22:10;;;;;;;16.15;9.75;;;;;;;5.33;59.79;101242.80;1766461;80;21911;-77
2021/01/05 01:24:38;;;;;;;27.00;15.75;;;;;;;5.43;59.58;101244.81;1762486;79;21186;-79
2021/01/05 01:27:08;;;;;;;24.50;13.78;;;;;;;5.43;59.49;101243.00;1759749;79;21210;-80
2021/01/05 01:29:37;;;;;;;20.82;12.37;;;;;;;5.49;59.38;101243.90;1780368;80;21253;-78
2021/01/05 01:32:05;;;;;;;24.05;14.80;;;;;;;5.49;59.23;101241.24;1772319;80;21446;-79
2021/01/05 01:34:38;;;;;;;20.20;12.45;;;;;;;5.49;59.23;101243.90;1776653;80;21233;-79
2021/01/05 01:37:10;;;;;;;18.12;11.50;;;;;;;5.48;59.22;101232.91;1775627;80;21208;-80
2021/01/05 01:39:40;;;;;;;24.12;13.85;;;;;;;5.49;59.07;101236.41;1776619;80;21115;-79
2021/01/05 01:42:12;;;;;;;20.20;12.07;;;;;;;5.42;59.15;101231.16;1741254;82;21525;-79
2021/01/05 01:44:41;;;;;;;17.10;11.45;;;;;;;5.39;59.13;101226.90;1737162;82;21329;-80
2021/01/05 01:47:40;;;;;;;16.95;10.60;;;;;;;5.39;59.19;101221.59;1746223;81;21221;-79
2021/01/05 01:50:17;;;;;;;26.15;15.03;;;;;;;5.41;59.23;101217.03;1755901;79;21226;-80
2021/01/05 01:53:23;;;;;;;29.42;15.48;;;;;;;5.37;59.26;101218.20;1741601;81;21445;-80
2021/01/05 01:56:43;;;;;;;26.65;13.60;;;;;;;5.38;59.28;101217.23;1740422;81;21717;-78
2021/01/05 02:00:12;;;;;;;19.67;11.83;;;;;;;5.50;59.10;101210.23;1837954;77;22731;-81
2021/01/05 02:03:19;;;;;;;14.58;9.85;;;;;;;5.46;58.97;101224.20;1819754;77;21059;-81
2021/01/05 02:06:12;;;;;;;19.37;12.28;;;;;;;5.47;58.99;101212.61;1796853;78;21815;-80
2021/01/05 02:09:00;;;;;;;20.25;12.60;;;;;;;5.51;58.95;101200.81;1824885;78;21571;-81
2021/01/05 02:12:12;;;;;;;17.32;11.03;;;;;;;5.57;58.88;101207.50;1806068;78;21154;-80
2021/01/05 02:15:10;;;;;;;16.95;11.08;;;;;;;5.53;58.85;101209.52;1843436;77;21208;-80
2021/01/05 02:18:20;;;;;;;21.25;12.85;;;;;;;5.49;58.86;101201.38;1808756;78;21612;-80
2021/01/05 02:20:58;;;;;;;18.73;12.40;;;;;;;5.45;58.82;101214.55;1810024;78;22116;-80
2021/01/05 02:23:38;;;;;;;21.52;12.23;;;;;;;5.37;58.88;101194.30;1812675;77;21184;-81
2021/01/05 02:26:33;;;;;;;17.87;11.97;;;;;;;5.31;59.07;101203.99;1799945;78;21201;-81
2021/01/05 02:29:07;;;;;;;19.60;12.50;;;;;;;5.34;59.22;101199.33;1810084;77;21161;-80
2021/01/05 02:31:59;;;;;;;19.02;10.95;;;;;;;5.41;59.07;101202.42;1821730;78;21576;-80
2021/01/05 02:34:58;;;;;;;20.80;13.40;;;;;;;5.39;59.03;101191.03;1825597;77;22262;-81
2021/01/05 02:37:58;;;;;;;21.23;14.30;;;;;;;5.41;59.12;101184.31;1817752;78;21142;-80
2021/01/05 02:41:23;;;;;;;18.70;11.08;;;;;;;5.42;59.01;101186.00;1816542;78;21184;-81
2021/01/05 02:44:50;;;;;;;20.17;13.70;;;;;;;5.42;59.01;101174.89;1810444;78;21262;-80
2021/01/05 02:47:48;;;;;;;20.55;12.05;;;;;;;5.51;58.90;101180.05;1805989;78;21683;-80
2021/01/05 02:50:57;;;;;;;20.82;13.25;;;;;;;5.64;58.78;101168.07;1818705;78;22462;-79
2021/01/05 02:54:16;;;;;;;21.70;13.80;;;;;;;5.67;58.63;101167.83;1766610;78;21129;-79
2021/01/05 02:57:46;;;;;;;20.32;11.95;;;;;;;5.69;58.50;101163.27;1821495;78;21160;-79
2021/01/05 03:01:11;;;;;;;20.63;12.63;;;;;;;5.72;58.33;101163.91;1824325;78;21189;-79
2021/01/05 03:03:59;;;;;;;20.65;13.60;;;;;;;5.70;58.19;101163.16;1822389;78;21194;-79
2021/01/05 03:06:50;;;;;;;20.95;13.50;;;;;;;5.64;58.33;101163.61;1812558;78;22455;-80
2021/01/05 03:10:12;;;;;;;27.42;14.60;;;;;;;5.66;58.42;101151.52;1814853;78;21172;-81
2021/01/05 03:13:40;;;;;;;18.90;11.33;;;;;;;5.66;58.35;101148.38;1717569;82;21572;-80
2021/01/05 03:16:32;;;;;;;18.80;11.88;;;;;;;5.68;58.38;101146.48;1719221;82;21211;-79
2021/01/05 03:19:27;;;;;;;15.80;10.53;;;;;;;5.64;58.37;101141.50;1712719;82;21183;-79
2021/01/05 03:22:09;;;;;;;20.25;11.88;;;;;;;5.66;58.36;101135.58;1864169;76;23091;-78
2021/01/05 03:24:56;;;;;;;21.62;14.53;;;;;;;5.61;58.33;101131.92;1794157;77;21125;-80
2021/01/05 03:27:42;;;;;;;21.23;12.05;;;;;;;5.56;58.45;101132.25;1805753;78;21500;-79
2021/01/05 03:30:43;;;;;;;16.62;10.13;;;;;;;5.57;58.54;101128.63;1799710;78;21188;-80
2021/01/05 03:33:30;;;;;;;18.32;11.88;;;;;;;5.56;58.53;101133.58;1801080;78;21455;-82
2021/01/05 03:36:17;;;;;;;18.67;12.05;;;;;;;5.56;58.62;101113.64;1702928;83;21228;-80
2021/01/05 03:39:05;;;;;;;19.87;11.73;;;;;;;5.61;58.59;101113.31;1785292;78;21648;-81
2021/01/05 03:41:51;;;;;;;17.75;12.20;;;;;;;5.61;58.51;101117.30;1822569;77;21171;-81
2021/01/05 03:44:41;;;;;;;18.23;12.03;;;;;;;5.56;58.56;101129.59;1800812;78;21173;-80
2021/01/05 03:47:30;;;;;;;20.32;13.20;;;;;;;5.52;58.63;101116.15;1808607;78;21210;-79
2021/01/05 03:50:05;;;;;;;18.60;12.85;;;;;;;5.51;58.68;101109.14;1746865;79;21271;-80
2021/01/05 03:52:54;;;;;;;18.52;13.10;;;;;;;5.53;58.80;101107.21;1802620;78;21197;-77
2021/01/05 03:55:26;;;;;;;16.02;10.68;;;;;;;5.57;58.84;101114.49;1766031;78;21268;-79
2021/01/05 03:58:13;;;;;;;21.65;12.35;;;;;;;5.56;58.77;101113.64;1796378;78;21237;-78
2021/01/05 04:01:00;;;;;;;24.55;14.53;;;;;;;5.51;58.74;101099.84;1803323;78;21195;-79
2021/01/05 04:03:30;;;;;;;19.52;13.18;;;;;;;5.54;58.85;101111.59;1800935;78;21589;-78
2021/01/05 04:05:58;;;;;;;24.98;14.78;;;;;;;5.57;58.92;101102.53;1811676;77;21566;-77
2021/01/05 04:08:28;;;;;;;25.68;14.23;;;;;;;5.66;58.82;101104.53;1817251;78;21411;-79
2021/01/05 04:10:56;;;;;;;44.33;24.77;;;;;;;5.72;58.68;101121.38;1817500;78;21203;-79
2021/01/05 04:13:25;;;;;;;50.05;24.07;;;;;;;5.71;58.50;101104.20;1817274;78;21201;-76
2021/01/05 04:15:53;;;;;;;57.25;26.33;;;;;;;5.71;58.48;101102.87;1817326;78;21225;-78
2021/01/05 04:18:20;;;;;;;49.15;25.55;;;;;;;5.75;58.44;101107.00;1817341;78;21391;-79
2021/01/05 04:20:48;;;;;;;52.35;25.05;;;;;;;5.80;58.37;101101.72;1817323;78;22438;-77
2021/01/05 04:23:16;;;;;;;54.95;24.87;;;;;;;5.80;58.30;101099.54;1819237;77;21676;-78
2021/01/05 04:25:44;;;;;;;44.35;21.48;;;;;;;5.81;58.42;101091.92;1825895;77;21404;-78
2021/01/05 04:28:12;;;;;;;38.23;19.00;;;;;;;5.83;58.31;101101.50;1804328;79;21171;-77
2021/01/05 04:30:39;;;;;;;24.18;13.80;;;;;;;5.79;58.18;101096.03;1845187;77;21172;-78
2021/01/05 04:33:10;;;;;;;24.55;13.65;;;;;;;5.77;58.30;101103.29;1844170;77;21333;-79
2021/01/05 04:35:38;;;;;;;28.32;15.53;;;;;;;5.73;58.42;101110.27;1823489;78;21177;-79
2021/01/05 04:38:06;;;;;;;24.95;15.15;;;;;;;5.69;58.58;101102.14;1816767;77;21230;-78
2021/01/05 04:40:42;;;;;;;29.15;16.52;;;;;;;5.71;58.67;101101.54;1777945;80;21188;-80
2021/01/05 04:43:36;;;;;;;21.40;11.05;;;;;;;5.76;58.78;101094.08;1811781;79;21572;-79
2021/01/05 04:46:18;;;;;;;24.67;13.58;;;;;;;5.80;58.83;101095.07;1811585;79;21424;-79
2021/01/05 04:49:15;;;;;;;26.05;16.20;;;;;;;5.79;58.93;101092.05;1811550;79;21144;-80
2021/01/05 04:52:08;;;;;;;20.25;12.88;;;;;;;5.87;59.04;101101.29;1811505;79;21003;-80
2021/01/05 04:54:59;;;;;;;23.25;13.72;;;;;;;5.93;58.98;101095.55;1778516;79;21102;-80
2021/01/05 04:57:29;;;;;;;22.15;13.83;;;;;;;5.94;59.00;101095.91;1810975;79;21121;-79
2021/01/05 05:00:26;;;;;;;21.52;13.05;;;;;;;5.96;58.96;101090.01;1777418;79;22224;-79
2021/01/05 05:03:34;;;;;;;22.17;14.33;;;;;;;5.94;59.00;101099.41;1810910;79;21208;-78
2021/01/05 05:06:20;;;;;;;20.87;13.20;;;;;;;6.01;59.07;101093.17;1811651;79;21178;-78
2021/01/05 05:09:11;;;;;;;27.13;16.32;;;;;;;6.12;59.05;101087.89;1810098;79;21177;-78
2021/01/05 05:12:28;;;;;;;17.95;10.32;;;;;;;6.11;59.06;101082.22;1820501;77;21549;-78
2021/01/05 05:15:23;;;;;;;14.60;9.75;;;;;;;6.16;59.04;101100.49;1677103;85;21376;-78
2021/01/05 05:18:08;;;;;;;22.42;14.73;;;;;;;6.16;58.84;101088.52;1677805;85;21069;-81
2021/01/05 05:20:59;;;;;;;24.60;15.98;;;;;;;6.06;58.98;101083.89;1760811;80;21190;-80
2021/01/05 05:24:13;;;;;;;22.82;15.53;;;;;;;6.06;59.10;101086.55;1769390;80;21208;-78
2021/01/05 05:27:06;;;;;;;22.07;13.05;;;;;;;6.14;59.04;101087.80;1771786;80;21184;-79
2021/01/05 05:29:40;;;;;;;21.93;13.93;;;;;;;6.20;58.90;101089.99;1771344;80;22437;-78
2021/01/05 05:32:19;;;;;;;19.35;13.13;;;;;;;6.23;58.81;101085.30;1761162;78;21109;-80
2021/01/05 05:35:13;;;;;;;18.52;11.78;;;;;;;6.29;58.69;101089.30;1784104;79;21107;-79
2021/01/05 05:37:59;;;;;;;22.20;12.15;;;;;;;6.32;58.59;101089.09;1783203;79;21101;-77
2021/01/05 05:40:55;;;;;;;21.65;13.38;;;;;;;6.32;58.52;101086.42;1782447;79;21091;-79
2021/01/05 05:43:55;;;;;;;18.80;11.88;;;;;;;6.33;58.45;101078.80;1777772;78;21461;-78
2021/01/05 05:46:39;;;;;;;16.25;11.75;;;;;;;6.30;58.35;101073.22;1779493;79;21283;-77
2021/01/05 05:49:36;;;;;;;18.32;11.50;;;;;;;6.25;58.47;101068.73;1802439;78;21442;-78
2021/01/05 05:52:09;;;;;;;13.35;9.05;;;;;;;6.25;58.66;101070.55;1820311;78;21648;-79
2021/01/05 05:54:36;;;;;;;17.82;11.40;;;;;;;6.24;58.63;101090.13;1821411;78;21172;-79
2021/01/05 05:57:26;;;;;;;14.15;10.30;;;;;;;6.23;58.64;101087.11;1821644;78;22037;-79
2021/01/05 05:59:59;;;;;;;13.08;8.90;;;;;;;6.19;58.72;101093.63;1821065;78;21205;-78
2021/01/05 06:02:27;;;;;;;14.73;10.08;;;;;;;6.22;58.77;101083.61;1820700;78;21196;-78
2021/01/05 06:04:57;;;;;;;27.98;11.75;;;;;;;6.29;58.73;101087.97;1821884;78;21246;-78
2021/01/05 06:07:25;;;;;;;18.07;10.98;;;;;;;6.31;58.68;101090.91;1822497;78;21390;-78
2021/01/05 06:09:53;;;;;;;17.10;11.43;;;;;;;6.34;58.65;101095.13;1787547;78;21176;-78
2021/01/05 06:12:21;;;;;;;17.00;11.50;;;;;;;6.35;58.65;101093.67;1854930;77;21481;-79
2021/01/05 06:14:49;;;;;;;16.07;10.18;;;;;;;6.39;58.59;101085.47;1840523;77;21460;-78
2021/01/05 06:17:17;;;;;;;13.88;10.88;;;;;;;6.39;58.53;101091.63;1807237;79;21193;-79
2021/01/05 06:19:45;;;;;;;17.17;10.90;;;;;;;6.37;58.55;101096.23;1813500;78;20999;-79
2021/01/05 06:22:12;;;;;;;21.77;11.65;;;;;;;6.40;58.56;101084.50;1804820;78;21354;-79
2021/01/05 06:24:40;;;;;;;18.55;12.82;;;;;;;6.42;58.58;101079.44;1806381;78;21210;-79
2021/01/05 06:27:08;;;;;;;26.85;15.90;;;;;;;6.47;58.45;101076.42;1801155;78;21179;-80
2021/01/05 06:29:36;;;;;;;20.35;14.28;;;;;;;6.47;58.36;101080.42;1811013;78;21193;-80
2021/01/05 06:32:05;;;;;;;14.85;11.15;;;;;;;6.48;58.31;101073.64;1790813;79;21640;-81
2021/01/05 06:34:33;;;;;;;15.48;11.95;;;;;;;6.48;58.32;101077.63;1783453;79;21676;-79
2021/01/05 06:37:00;;;;;;;19.35;13.58;;;;;;;6.54;58.34;101087.83;1787288;78;21193;-80
2021/01/05 06:39:28;;;;;;;18.40;13.10;;;;;;;6.59;58.29;101082.16;1786894;80;21168;-79
2021/01/05 06:41:56;;;;;;;14.05;9.75;;;;;;;6.63;58.18;101084.08;1803650;78;21192;-78
2021/01/05 06:44:25;;;;;;;19.25;12.78;;;;;;;6.64;57.90;101079.98;1838796;77;21169;-79
2021/01/05 06:46:53;;;;;;;16.97;12.05;;;;;;;6.53;57.90;101078.13;1800907;78;21364;-78
2021/01/05 06:49:26;;;;;;;17.02;11.55;;;;;;;6.49;58.05;101081.98;1805238;79;21045;-79
2021/01/05 06:51:54;;;;;;;14.00;10.10;;;;;;;6.50;58.23;101073.06;1815544;77;21196;-80
2021/01/05 06:54:21;;;;;;;14.87;10.43;;;;;;;6.53;58.18;101070.14;1841754;77;21172;-78
2021/01/05 06:56:56;;;;;;;14.25;10.40;;;;;;;6.50;58.23;101079.70;1824590;78;21188;-76
2021/01/05 06:59:25;;;;;;;15.00;8.98;;;;;;;6.47;58.14;101076.42;1800791;77;21349;-80
2021/01/05 07:01:59;;;;;;;15.32;9.80;;;;;;;6.44;58.13;101081.48;1810096;77;21210;-79
2021/01/05 07:04:27;;;;;;;15.25;11.18;;;;;;;6.45;58.08;101070.36;1826889;78;21270;-79
2021/01/05 07:06:57;;;;;;;14.20;10.55;;;;;;;6.39;57.95;101084.98;1816411;78;21189;-78
2021/01/05 07:09:27;;;;;;;15.78;11.80;;;;;;;6.31;57.97;101078.05;1811023;78;21298;-79
2021/01/05 07:11:58;;;;;;;17.65;13.32;;;;;;;6.26;58.27;101079.73;1790477;78;21643;-79
2021/01/05 07:14:27;;;;;;;18.98;13.18;;;;;;;6.26;58.48;101071.75;1802657;78;21141;-79
2021/01/05 07:16:57;;;;;;;17.73;13.13;;;;;;;6.29;58.57;101076.84;1796544;79;21109;-79
2021/01/05 07:19:28;;;;;;;17.05;13.08;;;;;;;6.32;58.54;101077.11;1809290;78;21129;-81
2021/01/05 07:21:56;;;;;;;19.67;13.05;;;;;;;6.32;58.54;101086.42;1796833;78;21647;-79
2021/01/05 07:24:29;;;;;;;14.53;11.63;;;;;;;6.35;58.53;101084.84;1831096;77;21407;-80
2021/01/05 07:26:58;;;;;;;15.08;10.50;;;;;;;6.37;58.19;101117.52;1819550;77;21151;-80
2021/01/05 07:29:29;;;;;;;19.17;13.20;;;;;;;6.23;57.96;101096.42;1784686;79;21157;-82
2021/01/05 07:31:57;;;;;;;19.20;13.68;;;;;;;6.07;58.11;101097.55;1806639;79;21189;-79
2021/01/05 07:34:27;;;;;;;18.73;13.53;;;;;;;6.02;58.12;101090.39;1823550;77;21390;-78
2021/01/05 07:37:14;;;;;;;21.05;15.18;;;;;;;5.99;58.18;101070.66;1831568;77;21252;-79
2021/01/05 07:39:46;;;;;;;26.35;15.38;;;;;;;5.99;58.19;101094.59;1794541;78;21169;-80
2021/01/05 07:42:28;;;;;;;28.30;17.92;;;;;;;5.99;58.28;101090.61;1786720;79;21181;-78
2021/01/05 07:44:58;;;;;;;14.90;10.00;;;;;;;5.95;58.16;101093.16;1799858;78;21188;-80
2021/01/05 07:47:29;;;;;;;27.30;17.98;;;;;;;5.97;58.10;101112.97;1836331;77;21172;-79
2021/01/05 07:49:57;;;;;;;32.13;20.00;;;;;;;5.95;58.02;101086.51;1818064;78;21195;-80
2021/01/05 07:52:39;;;;;;;22.42;15.53;;;;;;;5.91;58.22;101096.12;1843070;77;21156;-79
2021/01/05 07:55:21;;;;;;;24.95;15.28;;;;;;;5.84;58.31;101099.69;1811523;77;21093;-78
2021/01/05 07:57:49;;;;;;;26.45;16.35;;;;;;;5.76;58.51;101083.44;1745748;80;21112;-80
2021/01/05 08:00:19;;;;;;;23.07;16.90;;;;;;;5.76;58.59;101100.72;1827691;77;21082;-78
2021/01/05 08:02:47;;;;;;;22.20;15.15;;;;;;;5.74;58.55;101091.54;1809759;79;21189;-78
2021/01/05 08:05:18;;;;;;;27.85;17.70;;;;;;;5.69;58.63;101107.45;1803947;79;21114;-81
2021/01/05 08:07:47;;;;;;;23.30;15.35;;;;;;;5.71;58.74;101085.59;1834609;77;21092;-78
2021/01/05 08:10:28;;;;;;;21.00;15.00;;;;;;;5.75;58.73;101091.90;1839234;77;21109;-79
2021/01/05 08:12:56;;;;;;;24.00;17.10;;;;;;;5.76;58.71;101101.56;1841205;77;21133;-80
2021/01/05 08:15:26;;;;;;;34.25;20.50;;;;;;;5.76;58.59;101075.47;1797079;78;21357;-81
2021/01/05 08:17:56;;;;;;;20.40;13.62;;;;;;;5.69;58.77;101079.55;1797080;79;21109;-80
2021/01/05 08:20:30;;;;;;;25.92;17.40;;;;;;;5.71;58.67;101068.31;1776300;80;21119;-81
2021/01/05 08:22:59;;;;;;;28.50;17.27;;;;;;;5.70;58.61;101063.97;1818358;78;21192;-80
2021/01/05 08:25:29;;;;;;;25.25;17.52;;;;;;;5.78;58.48;101057.62;1809707;78;21219;-81
2021/01/05 08:28:08;;;;;;;27.98;16.62;;;;;;;5.82;58.12;101061.27;1800273;78;21362;-79
2021/01/05 08:30:39;;;;;;;26.55;16.40;;;;;;;5.91;57.99;101057.08;1808205;78;21391;-80
2021/01/05 08:33:10;;;;;;;27.60;17.20;;;;;;;5.89;57.83;101047.02;1794775;78;21394;-80
2021/01/05 08:35:45;;;;;;;32.23;20.17;;;;;;;5.91;57.78;101042.94;1801504;78;21173;-81
2021/01/05 08:38:21;;;;;;;29.42;18.25;;;;;;;5.96;57.75;101035.50;1773970;78;21516;-80
2021/01/05 08:40:51;;;;;;;34.85;20.75;;;;;;;6.12;57.48;101039.17;1800195;78;21436;-80
2021/01/05 08:43:19;;;;;;;27.98;17.87;;;;;;;6.12;57.43;101035.19;1800166;78;22322;-80
2021/01/05 08:45:50;;;;;;;22.80;14.58;;;;;;;6.07;57.15;101028.40;1804227;78;21232;-80
2021/01/05 08:48:21;;;;;;;32.13;18.20;;;;;;;5.92;57.32;101018.08;1796542;78;21207;-79
2021/01/05 08:50:54;;;;;;;27.77;17.32;;;;;;;5.87;57.60;101025.03;1776268;78;21579;-79
2021/01/05 08:53:25;;;;;;;31.12;21.20;;;;;;;5.89;57.68;101026.23;1805852;78;21370;-81
2021/01/05 08:55:57;;;;;;;36.73;22.73;;;;;;;5.93;57.71;101021.94;1798072;78;21197;-79
2021/01/05 08:58:28;;;;;;;31.17;20.90;;;;;;;5.91;57.84;101017.69;1792399;78;21372;-82
2021/01/05 09:01:04;;;;;;;36.30;21.37;;;;;;;5.87;57.91;101022.38;1806181;78;21132;-80
2021/01/05 09:03:40;;;;;;;28.95;18.17;;;;;;;5.87;57.84;101025.52;1811700;78;21314;-79
2021/01/05 09:06:17;;;;;;;32.28;21.02;;;;;;;5.83;57.96;101009.78;1802117;78;21506;-80
2021/01/05 09:08:54;;;;;;;35.88;20.40;;;;;;;5.84;57.97;101009.30;1809296;78;21109;-79
2021/01/05 09:11:26;;;;;;;39.95;25.30;;;;;;;5.85;57.86;101022.95;1786115;78;21177;-79
2021/01/05 09:13:58;;;;;;;29.75;17.98;;;;;;;5.83;57.68;101015.59;1812407;78;21128;-78
2021/01/05 09:16:32;;;;;;;30.77;18.82;;;;;;;5.82;57.63;101016.55;1801364;78;21579;-80
2021/01/05 09:19:01;;;;;;;28.67;18.90;;;;;;;5.81;57.45;101022.81;1809581;78;21398;-78
2021/01/05 09:21:31;;;;;;;27.80;19.67;;;;;;;5.75;57.23;101013.97;1809999;78;21117;-80
2021/01/05 09:24:03;;;;;;;39.45;23.38;;;;;;;5.67;57.31;101005.22;1799158;78;21445;-79
2021/01/05 09:26:34;;;;;;;37.95;21.55;;;;;;;5.64;57.33;101002.81;1806629;78;21189;-80
2021/01/05 09:29:10;;;;;;;34.38;21.68;;;;;;;5.66;57.47;101004.86;1792313;78;21906;-79
2021/01/05 09:31:48;;;;;;;30.02;19.00;;;;;;;5.73;57.46;101014.58;1801533;78;21231;-80
2021/01/05 09:34:18;;;;;;;39.38;24.07;;;;;;;5.77;57.40;101008.08;1830051;77;21772;-81
2021/01/05 09:36:46;;;;;;;36.10;21.37;;;;;;;5.83;57.32;101024.89;1801262;78;21181;-79
2021/01/05 09:39:17;;;;;;;42.83;23.38;;;;;;;5.77;57.31;101002.77;1818257;78;21193;-79
2021/01/05 09:41:51;;;;;;;43.23;24.30;;;;;;;5.73;57.16;100993.31;1807375;78;21184;-78
2021/01/05 09:44:18;;;;;;;38.92;23.87;;;;;;;5.72;57.29;100995.58;1807265;78;22087;-80
2021/01/05 09:46:52;;;;;;;43.15;24.92;;;;;;;5.73;57.41;101001.29;1818082;78;21132;-80
2021/01/05 09:49:20;;;;;;;36.42;23.80;;;;;;;5.78;57.32;101004.45;1817144;78;21938;-80
2021/01/05 09:51:48;;;;;;;46.23;24.32;;;;;;;5.71;57.28;100995.22;1808595;77;21133;-80
2021/01/05 09:54:17;;;;;;;48.33;26.65;;;;;;;5.69;57.43;100993.17;1740663;80;21118;-79
2021/01/05 09:56:52;;;;;;;42.40;24.15;;;;;;;5.72;57.39;100981.84;1804035;78;22230;-81
2021/01/05 09:59:26;;;;;;;44.42;24.20;;;;;;;5.77;57.16;100985.00;1806403;77;21133;-79
2021/01/05 10:01:55;;;;;;;42.98;25.30;;;;;;;5.78;57.04;100993.33;1812720;78;21123;-78
2021/01/05 10:04:26;;;;;;;43.95;25.10;;;;;;;5.81;56.94;101002.42;1835352;76;21082;-78
2021/01/05 10:06:58;;;;;;;32.85;20.27;;;;;;;5.76;56.85;100991.25;1795829;78;21880;-79
2021/01/05 10:09:27;;;;;;;37.33;20.43;;;;;;;5.70;56.54;100988.22;1819171;77;21357;-80
2021/01/05 10:11:55;;;;;;;49.08;27.58;;;;;;;5.52;56.82;100964.70;1790747;77;21152;-79
2021/01/05 10:14:25;;;;;;;49.13;27.30;;;;;;;5.47;56.99;100977.47;1800558;78;21109;-79
2021/01/05 10:16:56;;;;;;;40.17;22.62;;;;;;;5.42;57.12;100980.95;1806844;78;21109;-79
2021/01/05 10:19:30;;;;;;;41.98;24.45;;;;;;;5.41;57.16;100967.30;1823041;76;21097;-77
2021/01/05 10:22:08;;;;;;;47.03;28.65;;;;;;;5.34;57.16;100958.92;1797900;79;22731;-80
2021/01/05 10:24:38;;;;;;;46.53;24.30;;;;;;;5.31;57.16;100950.32;1822420;78;21600;-79
2021/01/05 10:27:10;;;;;;;52.78;27.80;;;;;;;5.23;57.40;100962.02;1799933;78;21100;-81
2021/01/05 10:29:44;;;;;;;52.53;28.52;;;;;;;5.18;57.55;100948.19;1787776;79;21179;-81
2021/01/05 10:32:18;;;;;;;44.27;25.65;;;;;;;5.23;57.65;100952.72;1812942;77;21122;-79
2021/01/05 10:34:50;;;;;;;49.83;28.57;;;;;;;5.24;57.62;100937.14;1829444;76;22717;-81
2021/01/05 10:37:20;;;;;;;51.92;27.90;;;;;;;5.21;57.71;100939.53;1820057;77;21221;-79
2021/01/05 10:39:50;;;;;;;40.38;22.30;;;;;;;5.16;57.82;100929.72;1817772;78;21228;-79
2021/01/05 10:42:19;;;;;;;40.98;24.92;;;;;;;5.14;57.70;100934.80;1816445;78;21196;-79
2021/01/05 10:44:47;;;;;;;45.70;27.77;;;;;;;5.07;57.77;100933.89;1805396;78;21605;-79
2021/01/05 10:47:15;;;;;;;53.50;29.37;;;;;;;5.06;57.98;100930.03;1794300;78;21210;-80
2021/01/05 10:49:43;;;;;;;53.02;29.07;;;;;;;5.04;58.12;100934.14;1799715;78;21050;-79
2021/01/05 10:55:30;;;;;;;44.60;23.40;;;;;;;5.17;58.48;100931.90;1786445;79;22708;-78
2021/01/05 10:57:57;;;;;;;46.10;27.17;;;;;;;5.20;58.28;100922.39;1792674;79;21548;-79
2021/01/05 11:00:26;;;;;;;52.25;27.82;;;;;;;5.25;58.20;100917.58;1797126;78;21815;-80
2021/01/05 11:02:54;;;;;;;51.23;29.32;;;;;;;5.28;58.03;100922.68;1798538;79;21762;-80
2021/01/05 11:05:23;;;;;;;55.08;28.57;;;;;;;5.30;57.85;100925.57;1786799;79;21166;-82
2021/01/05 11:07:55;;;;;;;40.15;22.73;;;;;;;5.31;57.71;100920.66;1780266;79;21234;-80
2021/01/05 11:10:24;;;;;;;41.75;24.80;;;;;;;5.36;57.55;100929.61;1763794;80;21357;-81
2021/01/05 11:12:57;;;;;;;50.17;26.05;;;;;;;5.39;57.32;100928.52;1766048;80;21370;-80
2021/01/05 11:15:28;;;;;;;52.58;30.88;;;;;;;5.37;57.39;100933.95;1755034;80;21201;-81
2021/01/05 11:17:55;;;;;;;55.48;30.45;;;;;;;5.35;57.29;100922.58;1740548;80;21190;-80
2021/01/05 11:20:24;;;;;;;49.70;28.85;;;;;;;5.30;57.40;100944.65;1782627;80;21647;-81
2021/01/05 11:22:56;;;;;;;47.50;28.47;;;;;;;5.24;57.46;100938.47;1801168;79;21180;-81
2021/01/05 11:25:23;;;;;;;53.05;29.60;;;;;;;5.25;57.41;100934.84;1750925;80;21205;-80
2021/01/05 11:27:52;;;;;;;53.75;31.05;;;;;;;5.29;57.39;100925.22;1767266;80;21246;-81
2021/01/05 11:30:23;;;;;;;54.42;29.87;;;;;;;5.30;57.39;100928.71;1757519;80;21190;-80
2021/01/05 11:32:55;;;;;;;53.25;31.00;;;;;;;5.26;57.44;100905.51;1769056;80;21169;-81
2021/01/05 11:35:27;;;;;;;53.52;29.92;;;;;;;5.34;57.50;100894.33;1768796;80;21197;-81
2021/01/05 11:38:09;;;;;;;48.33;26.20;;;;;;;5.41;57.34;100898.23;1766669;80;21205;-81
2021/01/05 11:41:01;;;;;;;49.20;30.00;;;;;;;5.43;57.21;100896.78;1706877;80;21600;-82
2021/01/05 11:43:39;;;;;;;36.65;20.45;;;;;;;5.42;57.20;100889.30;1771844;79;21198;-79
2021/01/05 11:46:09;;;;;;;44.95;27.45;;;;;;;5.47;57.09;100893.78;1759250;80;21499;-81
2021/01/05 11:48:36;;;;;;;42.98;25.32;;;;;;;5.49;56.96;100887.02;1773679;80;21181;-82
2021/01/05 11:51:05;;;;;;;42.98;24.30;;;;;;;5.48;56.87;100884.00;1767766;80;21493;-81
2021/01/05 11:53:34;;;;;;;47.80;27.45;;;;;;;5.45;56.61;100910.33;1754272;79;21209;-80
2021/01/05 11:56:01;;;;;;;45.43;25.77;;;;;;;5.35;56.81;100900.00;1750332;80;21616;-81
2021/01/05 12:01:17;;;;;;;43.52;27.13;;;;;;;5.43;57.04;100906.08;1877186;76;25570;-80
2021/01/05 12:03:45;;;;;;;39.80;25.32;;;;;;;5.47;56.90;100923.49;1834160;77;21185;-81
2021/01/05 12:06:22;;;;;;;47.95;26.62;;;;;;;5.51;56.62;100916.99;1834509;77;21206;-79
2021/01/05 12:08:51;;;;;;;38.90;23.80;;;;;;;5.46;56.67;100930.62;1829885;77;21196;-77